KTVC/TVC METAR and TAF weather

Enter ICAO airport designator
Station Type Date Time Source
KTVC METAR 2019/10/15 18:53 UTC NOAA

KTVC 151853Z VRB04KT 10SM BKN090 OVC110 08/05 A2979 RMK AO2 RAE33 SLP091 P0000 T00780050


Station Type Date Time Source
KTVC Decoded METAR 2019/10/15 18:53 UTC NOAA

CHERRY CAPITAL AIRPORT, MI, United States (KTVC) 44-44N 085-34W 190M
Oct 15, 2019 - 02:53 PM EDT / 2019.10.15 1853 UTC
Wind: Variable at 5 MPH (4 KT):0
Visibility: 10 mile(s):0
Sky conditions: overcast
Precipitation last hour: A trace
Temperature: 46.0 F (7.8 C)
Dew Point: 41.0 F (5.0 C)
Relative Humidity: 82%
Pressure (altimeter): 29.79 in. Hg (1008 hPa)
ob: KTVC 151853Z VRB04KT 10SM BKN090 OVC110 08/05 A2979 RMK AO2 RAE33 SLP091 P0000 T00780050
cycle: 19

Station Type Date Time Source
KTVC TAF 2019/10/15 18:45 UTC NOAA

TAF KTVC 151743Z 1518/1618 14005KT P6SM -RA BKN060 OVC080
FM152100 13012G20KT P6SM VCSH OVC040
FM152300 15010KT 6SM -SHRA BR OVC030
FM160300 20006KT P6SM VCSH OVC013
FM161000 27008KT 6SM -SHRA BR BKN010

Example: see airport list